createdAt,value
2022-10-06T00:01:10.834Z,100984.00
2022-10-06T00:03:45.591Z,100987.00
2022-10-06T00:06:20.099Z,100983.00
2022-10-06T00:08:53.475Z,101000.00
2022-10-06T00:11:26.773Z,101001.00
2022-10-06T00:14:00.402Z,101006.00
2022-10-06T00:16:35.325Z,101022.00
2022-10-06T00:19:08.844Z,101015.00
2022-10-06T00:21:42.668Z,101017.00
2022-10-06T00:24:16.198Z,101026.00
2022-10-06T00:26:49.491Z,101023.00
2022-10-06T00:29:22.765Z,101032.00
2022-10-06T00:31:57.500Z,101031.00
2022-10-06T00:34:30.801Z,101035.00
2022-10-06T00:37:04.212Z,101028.00
2022-10-06T00:39:37.572Z,101042.00
2022-10-06T00:42:24.383Z,101015.00
2022-10-06T00:45:01.844Z,101050.00
2022-10-06T00:47:36.927Z,101071.00
2022-10-06T13:08:01.180Z,101822.00
2022-10-06T13:10:35.517Z,101825.00
2022-10-06T13:13:24.309Z,101825.00
2022-10-06T13:16:00.707Z,101824.00
2022-10-06T13:18:34.239Z,101822.00
2022-10-06T13:21:16.334Z,101815.00
2022-10-06T13:23:52.372Z,101817.00
2022-10-06T13:26:29.407Z,101823.00
2022-10-06T13:29:31.810Z,101821.00
2022-10-06T13:32:17.978Z,101806.00
2022-10-06T13:34:51.570Z,101816.00
2022-10-06T13:37:25.236Z,101810.00
2022-10-06T13:40:01.007Z,101820.00
2022-10-06T13:42:35.107Z,101821.00
2022-10-06T13:45:16.009Z,101817.00
2022-10-06T13:48:19.298Z,101816.00
2022-10-06T13:50:54.307Z,101819.00
2022-10-06T13:53:31.684Z,101806.00
2022-10-06T13:56:06.876Z,101811.00
2022-10-06T13:58:40.441Z,101819.00
2022-10-06T14:01:13.755Z,101812.00
2022-10-06T14:03:47.163Z,101816.00
2022-10-06T14:06:25.014Z,101818.00
2022-10-06T14:09:02.217Z,101797.00
2022-10-06T14:11:36.928Z,101816.00
2022-10-06T14:14:18.420Z,101811.00
2022-10-06T14:16:53.932Z,101801.00
2022-10-06T14:19:39.001Z,101815.00
2022-10-06T14:22:32.464Z,101817.00
2022-10-06T14:25:15.801Z,101813.00
2022-10-06T14:27:52.063Z,101811.00
2022-10-06T14:30:25.424Z,101808.00
2022-10-06T14:32:58.880Z,101813.00
2022-10-06T14:35:32.545Z,101810.00
2022-10-06T14:38:05.997Z,101817.00
2022-10-06T14:40:42.505Z,101812.00
2022-10-06T14:43:17.326Z,101801.00
2022-10-06T14:45:51.105Z,101811.00
2022-10-06T14:48:24.721Z,101820.00
2022-10-06T14:50:58.002Z,101813.00
2022-10-06T14:53:32.271Z,101811.00
2022-10-06T14:56:09.090Z,101808.00
2022-10-06T14:58:45.811Z,101804.00
2022-10-06T15:01:22.315Z,101793.00
2022-10-06T15:03:58.516Z,101805.00
2022-10-06T15:06:49.445Z,101803.00
2022-10-06T15:09:23.772Z,101805.00
2022-10-06T15:11:57.657Z,101809.00
2022-10-06T15:14:33.558Z,101809.00
2022-10-06T15:17:07.216Z,101807.00
2022-10-06T15:19:40.909Z,101807.00
2022-10-06T15:22:14.158Z,101806.00
2022-10-06T15:24:51.370Z,101790.00
2022-10-06T15:27:42.786Z,101798.00
2022-10-06T15:30:17.611Z,101799.00
2022-10-06T15:32:51.108Z,101793.00
2022-10-06T15:35:24.478Z,101785.00
2022-10-06T15:37:57.875Z,101784.00
2022-10-06T15:40:31.334Z,101797.00
2022-10-06T15:43:04.649Z,101787.00
2022-10-06T15:45:39.552Z,101803.00
2022-10-06T15:48:13.117Z,101798.00
2022-10-06T15:50:46.712Z,101794.00
2022-10-06T15:53:22.586Z,101752.00
2022-10-06T15:55:58.197Z,101783.00
2022-10-06T15:58:31.973Z,101795.00
2022-10-06T16:01:08.856Z,101797.00
2022-10-06T16:03:44.334Z,101800.00
2022-10-06T16:06:17.769Z,101804.00
2022-10-06T16:08:51.245Z,101791.00
2022-10-06T16:11:24.733Z,101797.00
2022-10-06T16:13:58.065Z,101793.00
2022-10-06T16:16:33.439Z,101798.00
2022-10-06T16:19:06.904Z,101804.00
2022-10-06T16:21:41.392Z,101803.00
2022-10-06T16:24:14.624Z,101797.00
2022-10-06T16:26:50.099Z,101777.00
2022-10-06T16:29:24.147Z,101790.00
2022-10-06T16:31:59.706Z,101796.00
2022-10-06T16:34:33.414Z,101800.00
2022-10-06T16:37:06.824Z,101801.00
2022-10-06T16:39:40.258Z,101799.00
2022-10-06T16:42:13.703Z,101804.00
2022-10-06T16:44:46.965Z,101774.00
2022-10-06T16:47:21.682Z,101800.00
2022-10-06T16:49:55.116Z,101801.00
2022-10-06T16:52:28.594Z,101805.00
2022-10-06T16:55:02.858Z,101804.00
2022-10-06T16:57:36.234Z,101809.00
2022-10-06T17:00:12.191Z,101804.00
2022-10-06T17:02:47.436Z,101801.00
2022-10-06T17:05:20.866Z,101799.00
2022-10-06T17:07:58.407Z,101810.00
2022-10-06T17:10:32.333Z,101815.00
2022-10-06T17:13:05.937Z,101789.00
2022-10-06T17:15:39.299Z,101801.00
2022-10-06T17:18:14.275Z,101818.00
2022-10-06T17:20:56.088Z,101814.00
2022-10-06T17:23:30.775Z,101803.00
2022-10-06T17:26:12.469Z,101799.00
2022-10-06T17:28:47.436Z,101811.00
2022-10-06T17:31:23.728Z,101814.00
2022-10-06T17:33:58.703Z,101810.00
2022-10-06T17:36:32.415Z,101809.00
2022-10-06T17:39:07.726Z,101813.00
2022-10-06T17:41:43.131Z,101816.00
2022-10-06T17:44:22.807Z,101819.00
2022-10-06T17:46:59.299Z,101819.00
2022-10-06T17:49:35.236Z,101816.00
2022-10-06T17:52:08.848Z,101817.00
2022-10-06T17:54:43.195Z,101804.00
2022-10-06T17:57:16.739Z,101813.00
2022-10-06T17:59:50.018Z,101813.00
2022-10-06T18:02:23.599Z,101813.00
2022-10-06T18:04:58.413Z,101816.00
2022-10-06T18:07:31.878Z,101812.00
2022-10-06T18:10:23.313Z,101807.00
2022-10-06T18:12:56.661Z,101808.00
2022-10-06T18:15:31.753Z,101807.00
2022-10-06T18:18:05.925Z,101797.00
2022-10-06T18:20:41.814Z,101790.00
2022-10-06T18:23:15.511Z,101806.00
2022-10-06T18:25:48.801Z,101808.00
2022-10-06T18:28:22.213Z,101793.00
2022-10-06T18:30:55.663Z,101808.00
2022-10-06T18:36:24.484Z,101804.00
2022-10-06T18:39:00.150Z,101806.00
2022-10-06T18:41:33.610Z,101811.00
2022-10-06T18:44:07.750Z,101806.00
2022-10-06T18:46:58.923Z,101800.00
2022-10-06T18:49:33.402Z,101811.00
2022-10-06T18:52:08.437Z,101804.00
2022-10-06T18:54:44.527Z,101811.00
2022-10-06T18:57:18.048Z,101802.00
2022-10-06T18:59:51.393Z,101818.00
2022-10-06T19:02:26.335Z,101797.00
2022-10-06T19:05:00.037Z,101808.00
2022-10-06T19:07:34.733Z,101814.00
2022-10-06T19:10:08.836Z,101809.00
2022-10-06T19:12:42.227Z,101817.00
2022-10-06T19:15:20.428Z,101799.00
2022-10-06T19:17:55.363Z,101810.00
2022-10-06T19:20:28.669Z,101811.00
2022-10-06T19:23:04.341Z,101809.00
2022-10-06T19:25:37.818Z,101806.00
2022-10-06T19:28:11.158Z,101802.00
2022-10-06T19:30:44.486Z,101809.00
2022-10-06T19:33:17.854Z,101797.00
2022-10-06T19:35:53.121Z,101803.00
2022-10-06T19:38:29.267Z,101799.00
2022-10-06T19:41:17.260Z,101780.00
2022-10-06T19:43:51.361Z,101807.00
2022-10-06T19:46:24.813Z,101804.00
2022-10-06T19:49:05.427Z,101776.00
2022-10-06T19:51:40.375Z,101813.00
2022-10-06T19:54:15.356Z,101807.00
2022-10-06T19:56:49.357Z,101803.00
2022-10-06T19:59:23.433Z,101805.00
2022-10-06T20:01:57.030Z,101812.00
2022-10-06T20:04:30.643Z,101796.00
2022-10-06T20:07:04.744Z,101796.00
2022-10-06T20:09:39.923Z,101815.00
2022-10-06T20:12:13.738Z,101814.00
2022-10-06T20:14:47.237Z,101811.00
2022-10-06T20:17:21.107Z,101809.00
2022-10-06T20:19:57.875Z,101815.00
2022-10-06T20:22:31.789Z,101805.00
2022-10-06T20:25:07.422Z,101810.00
2022-10-06T20:27:41.142Z,101801.00
2022-10-06T20:30:14.735Z,101808.00
2022-10-06T20:32:48.004Z,101809.00
2022-10-06T20:35:21.287Z,101802.00
2022-10-06T20:37:54.907Z,101804.00
2022-10-06T20:40:42.718Z,101807.00
2022-10-06T20:43:16.890Z,101806.00
2022-10-06T20:45:50.296Z,101797.00
2022-10-06T20:48:29.528Z,101800.00
2022-10-06T20:51:02.914Z,101803.00
2022-10-06T20:53:36.403Z,101775.00
2022-10-06T20:56:11.454Z,101802.00
2022-10-06T20:58:45.258Z,101774.00
2022-10-06T21:01:21.811Z,101793.00
2022-10-06T21:03:55.709Z,101784.00
2022-10-06T21:06:30.420Z,101782.00
2022-10-06T21:09:03.865Z,101790.00
2022-10-06T21:11:38.637Z,101785.00
2022-10-06T21:14:13.378Z,101785.00
2022-10-06T21:16:49.852Z,101778.00
2022-10-06T21:19:23.947Z,101781.00
2022-10-06T21:21:57.248Z,101775.00
2022-10-06T21:24:30.671Z,101778.00
2022-10-06T21:27:05.422Z,101777.00
2022-10-06T21:29:39.025Z,101775.00
2022-10-06T21:32:12.485Z,101768.00
2022-10-06T21:34:45.734Z,101776.00
2022-10-06T21:37:19.141Z,101773.00
2022-10-06T21:39:52.742Z,101774.00
2022-10-06T21:42:27.648Z,101760.00
2022-10-06T21:45:00.944Z,101763.00
2022-10-06T21:47:34.621Z,101766.00
2022-10-06T21:50:09.246Z,101763.00
2022-10-06T21:52:42.460Z,101765.00
2022-10-06T21:55:15.891Z,101753.00
2022-10-06T21:57:50.721Z,101751.00
2022-10-06T22:00:24.417Z,101746.00
2022-10-06T22:02:57.751Z,101746.00
2022-10-06T22:05:31.020Z,101744.00
2022-10-06T22:08:04.286Z,101743.00
2022-10-06T22:10:37.722Z,101740.00
2022-10-06T22:13:12.345Z,101726.00
2022-10-06T22:15:45.865Z,101737.00
2022-10-06T22:18:19.183Z,101731.00
2022-10-06T22:20:53.762Z,101738.00
2022-10-06T22:23:27.224Z,101723.00
2022-10-06T22:26:00.581Z,101730.00
2022-10-06T22:28:35.357Z,101714.00
2022-10-06T22:31:12.405Z,101729.00
2022-10-06T22:33:50.652Z,101723.00
2022-10-06T22:36:24.442Z,101721.00
2022-10-06T22:38:58.571Z,101718.00
2022-10-06T22:41:32.162Z,101711.00
2022-10-06T22:44:07.133Z,101707.00
2022-10-06T22:46:40.915Z,101696.00
2022-10-06T22:49:14.693Z,101700.00
2022-10-06T22:51:48.273Z,101708.00
2022-10-06T22:54:22.428Z,101704.00
2022-10-06T22:56:56.191Z,101682.00
2022-10-06T22:59:30.951Z,101691.00
2022-10-06T23:02:04.524Z,101690.00
2022-10-06T23:04:37.891Z,101673.00
2022-10-06T23:07:11.330Z,101687.00
2022-10-06T23:09:44.625Z,101663.00
2022-10-06T23:12:18.516Z,101677.00
2022-10-06T23:14:53.147Z,101674.00
2022-10-06T23:17:26.737Z,101674.00
2022-10-06T23:20:00.046Z,101666.00
2022-10-06T23:22:33.519Z,101672.00
2022-10-06T23:25:09.946Z,101672.00
2022-10-06T23:27:43.471Z,101657.00
2022-10-06T23:30:18.935Z,101660.00
2022-10-06T23:32:52.556Z,101648.00
2022-10-06T23:35:25.905Z,101662.00
2022-10-06T23:37:59.294Z,101658.00
2022-10-06T23:40:32.596Z,101660.00
2022-10-06T23:43:06.096Z,101653.00
2022-10-06T23:45:40.874Z,101651.00
2022-10-06T23:48:14.572Z,101652.00
2022-10-06T23:50:58.136Z,101657.00
2022-10-06T23:53:33.057Z,101637.00
2022-10-06T23:56:07.530Z,101655.00
2022-10-06T23:58:41.696Z,101651.00
